< Cyclone 199401 1994 Season Cyclone 199403 >
Cyclone 199402 (REWA)
General InformationTrack Information on Google MapsDetailed Wind InformationList of All Images || ResourceGoogle EarthGE AnimationAtom FeedGeoJSON
Detalied Best Track (Time Zone = UTC)
Year Month Day Hour Lat. Long. Pressure (hPa) Wind (kt) Class Image Chart
1993 12 28 06 -9.4 165.5 997 25 2 Image --
1993 12 28 12 -9.7 165.0 995 30 2 Image --
1993 12 28 18 -9.9 163.5 995 35 3 Image --
1993 12 29 00 -9.9 162.5 995 40 3 Image --
1993 12 29 06 -9.5 161.9 995 40 3 Image --
1993 12 29 12 -10.1 160.5 990 40 3 Image --
1993 12 29 18 -10.7 159.0 985 50 4 Image --
1993 12 30 00 -11.1 157.5 980 55 4 Image --
1993 12 30 06 -11.4 155.8 975 60 4 Image --
1993 12 30 12 -11.4 155.1 975 60 4 Image --
1993 12 30 18 -11.5 154.5 975 60 4 Image --
1993 12 31 00 -12.1 153.6 975 60 4 Image --
1993 12 31 06 -12.2 153.1 970 65 5 Image --
1993 12 31 12 -12.5 153.7 965 65 5 Image --
1993 12 31 18 -12.9 153.8 965 70 5 Image --
1994 1 1 00 -13.4 153.0 965 70 5 Image --
1994 1 1 06 -13.9 153.0 965 75 5 Image --
1994 1 1 12 -14.5 152.9 955 75 5 Image --
1994 1 1 18 -14.9 153.0 940 85 5 Image --
1994 1 2 00 -15.4 153.5 930 95 5 Image --
1994 1 2 06 -15.9 153.6 925 110 5 Image --
1994 1 2 12 -16.8 153.9 920 110 5 Image --
1994 1 2 18 -17.7 154.1 920 110 5 Image --
1994 1 3 00 -18.6 154.2 920 110 5 Image --
1994 1 3 06 -19.4 154.6 925 100 5 Image --
1994 1 3 12 -19.9 155.0 930 90 5 Image --
1994 1 3 18 -20.6 156.2 940 90 5 Image --
1994 1 4 00 -21.2 157.5 945 85 5 Image --
1994 1 4 06 -21.6 158.9 950 85 5 Image --
1994 1 4 12 -21.7 160.5 950 80 5 Image --
1994 1 4 18 -21.7 162.0 955 75 5 Image --
1994 1 5 00 -21.9 163.0 965 70 5 Image --
1994 1 5 06 -21.9 164.2 975 65 5 Image --
1994 1 5 12 -21.9 165.1 980 55 4 Image --
1994 1 5 18 -21.6 166.4 985 50 4 Image --
1994 1 6 00 -21.4 166.6 985 50 4 Image --
1994 1 6 06 -21.3 167.0 990 45 3 Image --
1994 1 6 12 -21.2 167.4 990 45 3 Image --
1994 1 6 18 -21.0 167.7 995 44.3182 0 Image --
1994 1 7 00 -20.6 168.0 995 43.6364 0 Image --
1994 1 7 06 -20.3 168.2 995 42.9545 0 Image --
1994 1 7 12 -19.9 168.3 995 42.2727 0 Image --
1994 1 7 18 -19.5 168.2 995 41.5909 0 Image --
1994 1 8 00 -19.3 168.0 995 40.9091 0 Image --
1994 1 8 06 -18.9 167.4 995 40.2273 0 Image --
1994 1 8 12 -18.5 166.6 1000 39.5455 0 Image --
1994 1 8 18 -18.2 166.0 1000 38.8636 0 Image --
1994 1 9 00 -16.9 165.0 1000 38.1818 0 Image --
1994 1 9 06 -17.5 164.3 1000 37.5 0 Image --
1994 1 9 12 -16.9 163.4 1000 36.8182 0 Image --
1994 1 9 18 -16.5 162.4 1000 36.1364 0 Image --
1994 1 10 00 -15.9 161.0 1000 35.4545 0 Image --
1994 1 10 06 -15.8 161.6 1000 34.7727 0 Image --
1994 1 10 12 -15.4 160.1 1001 34.0909 0 Image --
1994 1 10 18 -14.9 159.0 1000 33.4091 0 Image --
1994 1 11 00 -14.9 157.5 998 32.7273 0 Image --
1994 1 11 06 -14.9 156.1 995 32.0455 0 Image --
1994 1 11 12 -14.3 154.6 995 31.3636 0 Image --
1994 1 11 18 -13.4 153.8 995 30.6818 0 Image --
1994 1 12 00 -12.9 153.5 1000 30 2 Image --
1994 1 12 06 -12.3 153.4 1000 30 2 Image --
1994 1 12 12 -12.0 153.4 1002 30 2 Image --
1994 1 12 18 -11.7 153.4 1002 30 2 Image --
1994 1 13 00 -11.4 153.4 995 35 3 Image --
1994 1 13 05 -11.3 153.2 985 51 4 Image --
1994 1 13 15 -11.1 153.9 985 51 4 Image --
1994 1 13 22 -12.3 154.6 985 51 4 Image --
1994 1 14 00 -11.9 154.4 985 55 4 Image --
1994 1 14 06 -12.0 154.5 975 60 4 Image --
1994 1 14 12 -12.1 154.7 975 60 4 Image --
1994 1 14 18 -12.3 154.8 975 65 5 Image --
1994 1 15 00 -12.5 155.1 975 70 5 Image --
1994 1 15 06 -12.9 155.6 960 85 5 Image --
1994 1 15 12 -13.8 155.9 940 90 5 Image --
1994 1 15 18 -14.7 156.3 935 95 5 Image --
1994 1 16 00 -15.6 156.8 930 95 5 Image --
1994 1 16 06 -16.3 157.3 925 110 5 Image --
1994 1 16 12 -17.1 157.6 920 110 5 Image --
1994 1 16 18 -17.8 157.9 920 100 5 Image --
1994 1 17 00 -18.4 157.6 920 95 5 Image --
1994 1 17 06 -18.9 157.0 930 90 5 Image --
1994 1 17 12 -19.8 155.6 945 80 5 Image --
1994 1 17 18 -20.3 154.4 960 65 5 Image --
1994 1 18 00 -20.6 153.3 965 70 5 Image --
1994 1 18 06 -20.8 152.5 965 70 5 Image --
1994 1 18 12 -20.8 152.0 965 65 5 Image --
1994 1 18 18 -20.8 151.8 965 60 4 Image --
1994 1 19 00 -21.0 151.6 975 60 4 Image --
1994 1 19 06 -21.9 152.0 975 60 4 Image --
1994 1 19 12 -22.5 152.1 975 60 4 Image --
1994 1 19 18 -22.8 152.1 980 55 4 Image --
1994 1 20 00 -23.5 152.7 980 55 4 Image --
1994 1 20 06 -24.1 153.5 980 55 4 Image --
1994 1 20 12 -24.5 154.4 980 50 4 Image --
1994 1 20 18 -25.1 155.1 985 45 3 Image --
1994 1 21 00 -26.2 155.7 985 45 3 Image --
1994 1 21 06 -26.9 157.0 990 40 3 Image --
1994 1 21 12 -27.4 157.9 990 30 2 Image --
1994 1 21 18 -28.4 158.8 990 25 2 Image --
< Cyclone 199401 1994 Season Cyclone 199403 >

Help